Time;durP1;ratioP1;P1;durP2;ratioP2;P2;SDS_P1;SDS_P2;PMS_P1;PMS_P2;Temp;Humidity;BMP_temperature;BMP_pressure;BME280_temperature;BME280_humidity;BME280_pressure;Samples;Min_cycle;Max_cycle;Signal;HPM_P1;HPM_P2
2022/04/16 00:00:20;;;;;;;12.07;8.02;;;9.70;99.90;;;;;;4126375;28;20482;-63
2022/04/16 00:02:21;;;;;;;9.68;7.40;;;9.70;99.90;;;;;;4127504;28;20186;-63
2022/04/16 00:04:22;;;;;;;11.15;7.78;;;9.70;99.90;;;;;;4126025;28;20037;-62
2022/04/16 00:06:23;;;;;;;10.45;7.97;;;9.70;99.90;;;;;;4126948;28;20077;-62
2022/04/16 00:08:25;;;;;;;11.98;8.35;;;9.80;99.90;;;;;;4128488;28;20045;-63
2022/04/16 00:10:26;;;;;;;;;;;9.70;99.90;;;;;;4127087;28;20039;-62
2022/04/16 00:12:27;;;;;;;11.75;8.25;;;9.70;99.90;;;;;;4128384;28;19918;-62
2022/04/16 00:14:28;;;;;;;11.43;7.50;;;9.70;99.90;;;;;;4126541;28;20045;-62
2022/04/16 00:16:28;;;;;;;12.30;7.40;;;9.70;99.90;;;;;;4127171;28;20042;-63
2022/04/16 00:18:29;;;;;;;13.48;8.70;;;9.70;99.90;;;;;;4127267;28;20042;-62
2022/04/16 00:20:34;;;;;;;11.38;8.05;;;9.70;99.90;;;;;;4127965;28;20053;-62
2022/04/16 00:22:34;;;;;;;11.18;8.18;;;9.60;99.90;;;;;;4126931;28;20038;-63
2022/04/16 00:24:35;;;;;;;10.85;8.07;;;9.50;99.90;;;;;;4126711;28;20550;-62
2022/04/16 00:26:38;;;;;;;11.25;8.63;;;9.40;99.90;;;;;;4126530;28;20536;-63
2022/04/16 00:28:39;;;;;;;13.00;8.15;;;9.30;99.90;;;;;;4129416;28;20133;-62
2022/04/16 00:30:40;;;;;;;12.75;7.63;;;9.20;99.90;;;;;;4126461;28;20069;-62
2022/04/16 00:32:41;;;;;;;11.30;8.02;;;9.30;99.90;;;;;;4127677;28;20114;-62
2022/04/16 00:34:41;;;;;;;13.82;9.23;;;9.20;99.90;;;;;;4127055;28;20035;-62
2022/04/16 00:36:42;;;;;;;12.25;9.05;;;9.00;99.90;;;;;;4128779;28;20081;-63
2022/04/16 00:38:43;;;;;;;14.65;9.65;;;8.80;99.90;;;;;;4127534;28;20026;-62
2022/04/16 00:40:44;;;;;;;15.73;9.48;;;8.70;99.90;;;;;;4127976;28;20121;-63
2022/04/16 00:42:45;;;;;;;12.20;8.80;;;8.70;99.90;;;;;;4127784;28;20085;-63
2022/04/16 00:44:45;;;;;;;12.00;8.88;;;8.50;99.90;;;;;;4127873;28;20446;-63
2022/04/16 00:46:47;;;;;;;12.35;8.43;;;8.50;99.90;;;;;;4127543;28;20049;-63
2022/04/16 00:48:47;;;;;;;14.80;9.10;;;8.50;99.90;;;;;;4127618;28;20034;-63
2022/04/16 00:50:52;;;;;;;10.60;8.35;;;8.50;99.90;;;;;;4127174;28;20030;-62
2022/04/16 00:52:54;;;;;;;11.00;8.05;;;8.50;99.90;;;;;;4127542;28;20038;-62
2022/04/16 00:54:55;;;;;;;13.27;9.30;;;8.50;99.90;;;;;;4127376;28;20038;-63
2022/04/16 00:56:56;;;;;;;13.93;9.40;;;8.40;99.90;;;;;;4127225;28;20474;-63
2022/04/16 00:58:58;;;;;;;13.45;9.20;;;8.40;99.90;;;;;;4128557;28;20038;-63
2022/04/16 01:00:59;;;;;;;14.33;8.83;;;8.40;99.90;;;;;;4127701;28;20030;-63
2022/04/16 01:03:00;;;;;;;12.20;8.85;;;8.50;99.90;;;;;;4127350;28;20100;-62
2022/04/16 01:05:01;;;;;;;13.20;9.13;;;8.30;99.90;;;;;;4126861;28;20041;-62
2022/04/16 01:07:01;;;;;;;14.05;9.15;;;8.40;99.90;;;;;;4123920;28;20038;-64
2022/04/16 01:09:02;;;;;;;14.73;9.57;;;8.40;99.90;;;;;;4128210;28;20030;-64
2022/04/16 01:11:03;;;;;;;13.57;9.52;;;8.30;99.90;;;;;;4125596;28;20080;-62
2022/04/16 01:13:05;;;;;;;13.93;9.10;;;8.30;99.90;;;;;;4126697;28;20509;-63
2022/04/16 01:15:06;;;;;;;13.63;9.60;;;8.30;99.90;;;;;;4127065;28;20524;-63
2022/04/16 01:17:09;;;;;;;13.93;9.20;;;8.30;99.90;;;;;;4126990;28;20110;-62
2022/04/16 01:19:12;;;;;;;14.50;10.45;;;8.20;99.90;;;;;;4123834;28;20062;-62
2022/04/16 01:21:14;;;;;;;13.93;9.65;;;8.10;99.90;;;;;;4129058;28;20046;-62
2022/04/16 01:23:15;;;;;;;13.95;9.07;;;8.10;99.90;;;;;;4126131;28;20038;-63
2022/04/16 01:25:17;;;;;;;13.73;9.77;;;8.20;99.90;;;;;;4123274;28;20127;-63
2022/04/16 01:27:18;;;;;;;15.02;10.30;;;8.20;99.90;;;;;;4127221;28;20049;-62
2022/04/16 01:29:19;;;;;;;14.20;10.05;;;8.20;99.90;;;;;;4126143;28;20038;-62
2022/04/16 01:31:20;;;;;;;13.73;10.07;;;8.20;99.90;;;;;;4125311;28;20178;-62
2022/04/16 01:33:22;;;;;;;13.25;9.38;;;8.10;99.90;;;;;;4126826;28;20089;-62
2022/04/16 01:35:24;;;;;;;13.70;9.57;;;8.10;99.90;;;;;;4126453;28;20049;-62
2022/04/16 01:37:24;;;;;;;13.55;10.20;;;8.20;99.90;;;;;;4128935;28;20497;-62
2022/04/16 01:39:25;;;;;;;16.95;9.55;;;8.10;99.90;;;;;;4126623;28;20084;-62
2022/04/16 01:41:25;;;;;;;14.75;9.80;;;8.20;99.90;;;;;;4126850;28;20081;-63
2022/04/16 01:43:26;;;;;;;13.50;9.55;;;8.10;99.90;;;;;;4125681;28;20034;-62
2022/04/16 01:45:27;;;;;;;14.82;10.32;;;8.20;99.90;;;;;;4128168;28;20038;-63
2022/04/16 01:47:28;;;;;;;14.77;9.63;;;8.20;99.90;;;;;;4126530;28;20047;-62
2022/04/16 01:49:29;;;;;;;11.85;8.88;;;8.20;99.90;;;;;;4126701;28;20035;-62
2022/04/16 01:51:29;;;;;;;15.23;8.82;;;8.20;99.90;;;;;;4125790;28;20042;-62
2022/04/16 01:53:30;;;;;;;10.65;8.05;;;8.30;99.90;;;;;;4127206;28;20042;-62
2022/04/16 01:55:30;;;;;;;12.93;8.95;;;8.30;99.90;;;;;;4125966;28;21603;-62
2022/04/16 01:57:32;;;;;;;12.32;8.40;;;8.40;99.90;;;;;;4126627;28;20034;-65
2022/04/16 01:59:33;;;;;;;13.05;8.75;;;8.50;99.90;;;;;;4127830;28;20089;-63
2022/04/16 02:01:34;;;;;;;11.20;8.43;;;8.50;99.90;;;;;;4126905;28;20046;-63
2022/04/16 02:03:36;;;;;;;10.85;7.88;;;8.60;99.90;;;;;;4125799;28;20034;-63
2022/04/16 02:05:37;;;;;;;14.20;9.23;;;8.60;99.90;;;;;;4125629;28;20120;-63
2022/04/16 02:07:39;;;;;;;13.95;8.50;;;8.70;99.90;;;;;;4126961;28;20054;-62
2022/04/16 02:09:40;;;;;;;11.65;8.10;;;8.70;99.90;;;;;;4127972;28;20035;-62
2022/04/16 02:11:41;;;;;;;11.38;8.05;;;8.80;99.90;;;;;;4127194;28;20121;-62
2022/04/16 02:13:41;;;;;;;15.68;9.07;;;8.80;99.90;;;;;;4126697;28;20382;-63
2022/04/16 02:15:42;;;;;;;12.25;8.68;;;8.80;99.90;;;;;;4127657;28;20155;-62
2022/04/16 02:17:42;;;;;;;12.90;9.20;;;8.90;99.90;;;;;;4126724;28;20117;-62
2022/04/16 02:19:43;;;;;;;15.30;9.55;;;8.90;99.90;;;;;;4126695;28;20062;-62
2022/04/16 02:21:44;;;;;;;13.68;9.48;;;8.90;99.90;;;;;;4126760;28;20034;-63
2022/04/16 02:23:45;;;;;;;14.20;10.00;;;8.90;99.90;;;;;;4128043;28;20027;-63
2022/04/16 02:25:45;;;;;;;14.82;9.93;;;8.70;99.90;;;;;;4125578;28;20050;-63
2022/04/16 02:27:47;;;;;;;17.95;9.55;;;8.80;99.90;;;;;;4126404;28;20320;-63
2022/04/16 02:29:47;;;;;;;13.93;9.27;;;8.70;99.90;;;;;;4125952;28;20030;-62
2022/04/16 02:31:48;;;;;;;14.68;9.90;;;8.60;99.90;;;;;;4127915;28;20061;-63
2022/04/16 02:33:48;;;;;;;14.70;10.68;;;8.40;99.90;;;;;;4126891;28;20038;-62
2022/04/16 02:35:49;;;;;;;15.95;10.65;;;8.40;99.90;;;;;;4126550;28;20486;-62
2022/04/16 02:37:50;;;;;;;14.57;9.60;;;8.30;99.90;;;;;;4125237;28;20526;-62
2022/04/16 02:39:51;;;;;;;14.73;9.98;;;8.20;99.90;;;;;;4124991;28;20029;-62
2022/04/16 02:41:51;;;;;;;14.77;10.68;;;8.10;99.90;;;;;;4125327;28;20049;-63
2022/04/16 02:43:55;;;;;;;15.30;10.07;;;8.10;99.90;;;;;;4135141;28;20043;-63
2022/04/16 02:48:15;;;;;;;13.73;10.00;;;8.10;99.90;;;;;;4132245;28;20524;-64
2022/04/16 02:50:16;;;;;;;15.32;11.00;;;8.00;99.90;;;;;;4129097;28;20045;-63
2022/04/16 02:52:16;;;;;;;15.10;10.75;;;7.90;99.90;;;;;;4125650;28;20042;-63
2022/04/16 02:54:17;;;;;;;16.40;11.32;;;7.80;99.90;;;;;;4125818;28;20030;-63
2022/04/16 02:56:17;;;;;;;13.75;10.15;;;7.70;99.90;;;;;;4131971;28;20383;-63
2022/04/16 02:58:19;;;;;;;14.05;9.52;;;7.70;99.90;;;;;;4145277;28;20671;-63
2022/04/16 03:00:20;;;;;;;17.35;10.48;;;7.80;99.90;;;;;;4139810;28;20034;-63
2022/04/16 03:02:21;;;;;;;18.35;11.75;;;7.70;99.90;;;;;;4129742;28;20046;-63
2022/04/16 03:04:22;;;;;;;16.17;10.98;;;7.60;99.90;;;;;;4128742;28;20141;-63
2022/04/16 03:06:23;;;;;;;14.43;10.93;;;7.50;99.90;;;;;;4129598;28;20127;-63
2022/04/16 03:08:24;;;;;;;13.23;10.13;;;7.30;99.90;;;;;;4129149;28;20110;-63
2022/04/16 03:10:25;;;;;;;16.65;10.35;;;7.30;99.90;;;;;;4134109;28;20050;-63
2022/04/16 03:12:26;;;;;;;17.10;10.93;;;7.40;99.90;;;;;;4129811;28;20038;-63
2022/04/16 03:19:05;;;;;;;16.15;10.60;;;7.40;99.90;;;;;;4133684;28;20030;-64
2022/04/16 03:21:06;;;;;;;16.27;10.55;;;7.50;99.90;;;;;;4129751;28;20049;-64
2022/04/16 03:23:07;;;;;;;15.25;10.55;;;7.50;99.90;;;;;;4127929;28;20537;-63
2022/04/16 03:25:08;;;;;;;18.77;12.02;;;7.50;99.90;;;;;;4129058;28;20046;-65
2022/04/16 03:27:08;;;;;;;18.77;12.07;;;7.50;99.90;;;;;;4129058;28;20479;-63
2022/04/16 03:29:09;;;;;;;16.35;10.75;;;7.50;99.90;;;;;;4129807;28;20031;-63
2022/04/16 03:31:09;;;;;;;15.73;10.93;;;7.50;99.90;;;;;;4128600;28;20687;-63
2022/04/16 03:33:11;;;;;;;18.45;10.90;;;7.60;99.90;;;;;;4129603;28;20390;-63
2022/04/16 03:35:12;;;;;;;18.35;12.35;;;7.60;99.90;;;;;;4127277;28;20046;-63
2022/04/16 03:37:13;;;;;;;19.13;11.88;;;7.60;99.90;;;;;;4128207;28;20113;-63
2022/04/16 03:39:13;;;;;;;19.20;11.77;;;7.60;99.90;;;;;;4128348;28;20053;-63
2022/04/16 03:41:14;;;;;;;17.00;11.70;;;7.60;99.90;;;;;;4127659;28;20045;-63
2022/04/16 03:43:17;;;;;;;17.75;12.05;;;7.60;99.90;;;;;;4128936;28;20128;-63
2022/04/16 03:45:21;;;;;;;15.88;11.05;;;7.60;99.90;;;;;;4127591;28;20039;-63
2022/04/16 03:47:21;;;;;;;18.48;11.95;;;7.60;99.90;;;;;;4128503;28;20478;-63
2022/04/16 03:49:22;;;;;;;19.60;12.40;;;7.60;99.90;;;;;;4128248;28;20065;-63
2022/04/16 03:51:22;;;;;;;16.55;12.20;;;7.50;99.90;;;;;;4127930;28;20033;-63
2022/04/16 03:53:23;;;;;;;20.42;13.35;;;7.50;99.90;;;;;;4128481;28;20121;-63
2022/04/16 04:00:20;;;;;;;20.92;13.05;;;7.30;99.90;;;;;;4134560;28;20577;-63
2022/04/16 04:02:21;;;;;;;21.30;13.40;;;7.30;99.90;;;;;;4129232;28;20086;-64
2022/04/16 04:04:21;;;;;;;20.02;12.75;;;7.20;99.90;;;;;;4128450;28;20144;-63
2022/04/16 04:06:22;;;;;;;20.83;13.85;;;7.30;99.90;;;;;;4127836;28;20034;-64
2022/04/16 04:08:25;;;;;;;19.85;13.35;;;7.30;99.90;;;;;;4127527;28;20035;-63
2022/04/16 04:10:26;;;;;;;18.02;12.32;;;7.30;99.90;;;;;;4125795;28;20073;-63
2022/04/16 04:12:27;;;;;;;18.38;12.90;;;7.30;99.90;;;;;;4132200;28;20061;-63
2022/04/16 04:14:28;;;;;;;18.85;12.95;;;7.30;99.90;;;;;;4128538;28;20109;-63
2022/04/16 04:16:28;;;;;;;17.13;12.38;;;7.40;99.90;;;;;;4130019;28;20096;-63
2022/04/16 04:18:29;;;;;;;19.98;12.43;;;7.50;99.90;;;;;;4126615;28;20066;-63
2022/04/16 04:20:30;;;;;;;18.40;12.20;;;7.60;99.90;;;;;;4123000;28;20049;-63
2022/04/16 04:22:31;;;;;;;18.92;13.13;;;7.60;99.90;;;;;;4127704;28;20129;-63
2022/04/16 04:24:31;;;;;;;20.25;12.88;;;7.50;99.90;;;;;;4124408;28;20478;-63
2022/04/16 04:26:32;;;;;;;18.80;12.60;;;7.50;99.90;;;;;;4125633;28;20050;-63
2022/04/16 04:28:33;;;;;;;17.58;12.05;;;7.60;99.90;;;;;;4127858;28;20449;-63
2022/04/16 04:30:33;;;;;;;16.48;11.68;;;7.60;99.90;;;;;;4125566;28;20042;-63
2022/04/16 04:32:35;;;;;;;18.85;12.48;;;7.70;99.90;;;;;;4126415;28;20043;-63
2022/04/16 04:34:36;;;;;;;17.73;12.55;;;7.70;99.90;;;;;;4127305;28;20034;-64
2022/04/16 04:36:37;;;;;;;17.58;11.80;;;7.70;99.90;;;;;;4125670;28;20422;-64
2022/04/16 04:38:38;;;;;;;20.02;13.45;;;7.80;99.90;;;;;;4126701;28;20034;-63
2022/04/16 04:40:39;;;;;;;19.20;12.85;;;7.80;99.90;;;;;;4126955;28;20117;-63
2022/04/16 04:42:39;;;;;;;22.05;14.55;;;7.80;99.90;;;;;;4126505;28;20027;-63
2022/04/16 04:44:40;;;;;;;22.70;14.43;;;7.70;99.90;;;;;;4127031;28;20030;-63
2022/04/16 04:46:41;;;;;;;19.35;13.05;;;7.70;99.90;;;;;;4129003;28;20070;-63
2022/04/16 04:48:42;;;;;;;20.92;14.02;;;7.70;99.90;;;;;;4124874;28;20182;-63
2022/04/16 04:50:42;;;;;;;19.13;13.02;;;7.80;99.90;;;;;;4128256;28;20046;-63
2022/04/16 04:52:43;;;;;;;17.23;11.75;;;7.70;99.90;;;;;;4127708;28;20033;-63
2022/04/16 04:54:43;;;;;;;17.27;12.15;;;7.70;99.90;;;;;;4127706;28;20057;-63
2022/04/16 04:56:45;;;;;;;17.35;11.55;;;7.80;99.90;;;;;;4126209;28;20034;-63
2022/04/16 04:58:45;;;;;;;17.00;11.82;;;7.80;99.90;;;;;;4127655;28;20035;-63
2022/04/16 05:00:46;;;;;;;18.15;12.82;;;7.80;99.90;;;;;;4127454;28;20560;-63
2022/04/16 05:02:47;;;;;;;21.35;13.88;;;7.80;99.90;;;;;;4127591;28;20070;-66
2022/04/16 05:04:48;;;;;;;22.73;13.00;;;7.70;99.90;;;;;;4129057;28;20137;-64
2022/04/16 05:06:48;;;;;;;23.35;15.73;;;7.70;99.90;;;;;;4127164;28;20065;-63
2022/04/16 05:08:49;;;;;;;22.30;14.82;;;7.60;99.90;;;;;;4129899;28;20087;-63
2022/04/16 05:10:50;;;;;;;20.83;13.40;;;7.60;99.90;;;;;;4125513;28;20417;-64
2022/04/16 05:12:55;;;;;;;19.23;12.95;;;7.70;99.90;;;;;;4126256;28;20958;-64
2022/04/16 05:14:55;;;;;;;17.95;12.50;;;7.70;99.90;;;;;;4126282;28;20375;-64
2022/04/16 05:16:56;;;;;;;20.05;13.40;;;7.70;99.90;;;;;;4133390;28;20041;-64
2022/04/16 05:18:57;;;;;;;19.45;13.77;;;7.70;99.90;;;;;;4125554;28;20041;-64
2022/04/16 05:20:57;;;;;;;21.08;13.88;;;7.80;99.90;;;;;;4126940;28;20026;-64
2022/04/16 05:22:58;;;;;;;21.85;14.30;;;7.80;99.90;;;;;;4124999;28;20372;-64
2022/04/16 05:24:58;;;;;;;19.10;12.85;;;7.80;99.90;;;;;;4130361;28;20156;-64
2022/04/16 05:26:59;;;;;;;18.52;13.13;;;7.80;99.90;;;;;;4124619;28;20034;-64
2022/04/16 05:28:59;;;;;;;19.35;13.68;;;7.90;99.90;;;;;;4126670;28;20034;-64
2022/04/16 05:31:02;;;;;;;19.92;13.32;;;8.00;99.90;;;;;;4127893;28;20452;-64
2022/04/16 05:33:12;;;;;;;19.55;12.82;;;8.00;99.90;;;;;;4126779;28;20444;-64
2022/04/16 05:35:13;;;;;;;19.17;12.73;;;8.10;99.90;;;;;;4125969;28;20065;-64
2022/04/16 05:37:13;;;;;;;19.48;13.27;;;8.20;99.90;;;;;;4137132;28;20469;-64
2022/04/16 05:39:17;;;;;;;20.70;14.85;;;8.20;99.90;;;;;;4126701;28;20031;-64
2022/04/16 05:41:17;;;;;;;22.17;15.48;;;8.30;99.90;;;;;;4127622;28;20038;-65
2022/04/16 05:43:18;;;;;;;22.52;14.93;;;8.40;99.90;;;;;;4124505;28;20461;-64
2022/04/16 05:45:19;;;;;;;20.55;15.48;;;8.50;99.90;;;;;;4124363;28;20514;-64
2022/04/16 05:47:20;;;;;;;22.60;15.82;;;8.50;99.90;;;;;;4127682;28;20038;-64
2022/04/16 05:49:20;;;;;;;23.40;15.88;;;8.60;99.90;;;;;;4125098;28;20390;-64
2022/04/16 05:51:21;;;;;;;24.48;16.30;;;8.70;99.90;;;;;;4127200;28;20030;-64
2022/04/16 05:53:23;;;;;;;22.48;15.50;;;8.70;99.90;;;;;;4125065;28;20069;-64
2022/04/16 05:55:24;;;;;;;23.33;14.82;;;8.80;99.90;;;;;;4125603;28;20070;-64
2022/04/16 05:57:26;;;;;;;23.50;16.25;;;8.90;99.90;;;;;;4125547;28;20038;-64
2022/04/16 05:59:27;;;;;;;22.27;16.35;;;8.90;99.90;;;;;;4126251;28;20123;-64
2022/04/16 06:01:27;;;;;;;25.75;15.88;;;9.00;99.90;;;;;;4126483;28;20055;-64
2022/04/16 06:03:28;;;;;;;25.27;17.05;;;9.00;99.90;;;;;;4126210;28;20478;-64
2022/04/16 06:05:31;;;;;;;23.48;16.73;;;9.10;99.90;;;;;;4126422;28;20066;-64
2022/04/16 06:07:32;;;;;;;23.98;16.08;;;9.20;99.90;;;;;;4125202;28;20125;-64
2022/04/16 06:09:32;;;;;;;24.73;16.30;;;9.30;99.90;;;;;;4126736;28;20173;-64
2022/04/16 06:11:33;;;;;;;25.35;16.90;;;9.30;99.90;;;;;;4125089;28;20152;-64
2022/04/16 06:13:33;;;;;;;24.50;16.92;;;9.30;99.90;;;;;;4128327;28;20105;-64
2022/04/16 06:15:34;;;;;;;23.35;16.67;;;9.30;99.90;;;;;;4126277;28;20049;-64
2022/04/16 06:17:35;;;;;;;23.25;16.17;;;9.40;99.90;;;;;;4132904;28;20030;-64
2022/04/16 06:19:35;;;;;;;28.73;19.75;;;9.50;99.90;;;;;;4126609;28;20046;-64
2022/04/16 06:21:36;;;;;;;31.38;20.95;;;9.20;99.90;;;;;;4125191;28;20038;-64
2022/04/16 06:23:37;;;;;;;31.00;21.27;;;9.10;99.90;;;;;;4126411;28;20054;-64
2022/04/16 06:25:37;;;;;;;34.08;21.05;;;9.10;99.90;;;;;;4124039;28;20666;-65
2022/04/16 06:27:38;;;;;;;30.70;20.10;;;9.00;99.90;;;;;;4127000;28;20398;-64
2022/04/16 06:29:39;;;;;;;33.22;21.15;;;9.10;99.90;;;;;;4129660;28;20496;-64
2022/04/16 06:31:39;;;;;;;33.92;22.20;;;9.00;99.90;;;;;;4129246;28;20034;-64
2022/04/16 06:33:40;;;;;;;37.67;22.42;;;9.00;99.90;;;;;;4130215;28;20512;-64
2022/04/16 06:35:42;;;;;;;30.38;20.80;;;9.00;99.90;;;;;;4144867;28;20045;-64
2022/04/16 06:37:42;;;;;;;32.80;20.40;;;9.10;99.90;;;;;;4138284;28;20042;-64
2022/04/16 06:39:43;;;;;;;27.63;19.05;;;9.30;99.90;;;;;;4127976;28;20108;-63
2022/04/16 06:41:43;;;;;;;31.27;19.63;;;9.60;99.90;;;;;;4121713;28;20038;-64
2022/04/16 06:43:44;;;;;;;34.78;21.60;;;9.80;99.90;;;;;;4130263;28;20038;-63
2022/04/16 06:45:45;;;;;;;33.40;21.00;;;10.00;99.90;;;;;;4124433;28;20073;-64
2022/04/16 06:47:45;;;;;;;30.20;20.02;;;10.10;99.90;;;;;;4129070;28;20029;-64
2022/04/16 06:49:46;;;;;;;28.88;18.70;;;10.20;99.90;;;;;;4124041;28;20027;-64
2022/04/16 06:51:46;;;;;;;29.95;19.70;;;10.40;99.90;;;;;;4127251;28;20888;-63
2022/04/16 06:53:47;;;;;;;27.85;19.00;;;10.60;99.90;;;;;;4128717;28;20039;-62
2022/04/16 06:55:47;;;;;;;25.02;16.70;;;10.90;99.90;;;;;;4128190;28;20517;-63
2022/04/16 06:57:48;;;;;;;26.70;17.83;;;11.20;99.90;;;;;;4126930;28;20433;-65
2022/04/16 06:59:49;;;;;;;25.42;17.02;;;11.50;99.90;;;;;;4133094;28;20483;-64
2022/04/16 07:01:49;;;;;;;26.73;17.77;;;11.60;99.90;;;;;;4126742;28;20042;-64
2022/04/16 07:03:50;;;;;;;24.83;15.75;;;11.60;99.90;;;;;;4130245;28;20097;-64
2022/04/16 07:05:50;;;;;;;23.67;15.48;;;11.80;99.90;;;;;;4130091;28;20026;-64
2022/04/16 07:07:51;;;;;;;22.05;15.45;;;12.00;99.90;;;;;;4127728;28;20508;-64
2022/04/16 07:09:51;;;;;;;22.48;15.63;;;12.10;99.90;;;;;;4132199;28;20026;-64
2022/04/16 07:11:52;;;;;;;24.83;15.82;;;12.20;99.90;;;;;;4126563;28;20494;-64
2022/04/16 07:13:53;;;;;;;20.15;13.75;;;12.10;99.90;;;;;;4127824;28;20348;-64
2022/04/16 07:15:53;;;;;;;23.92;15.95;;;12.20;99.90;;;;;;4129157;28;20470;-64
2022/04/16 07:17:54;;;;;;;22.52;15.43;;;12.20;99.90;;;;;;4128578;28;20554;-63
2022/04/16 07:19:55;;;;;;;22.02;15.55;;;12.40;99.90;;;;;;4129084;28;20094;-63
2022/04/16 07:21:56;;;;;;;25.30;15.65;;;12.50;99.90;;;;;;4126537;28;20030;-64
2022/04/16 07:23:56;;;;;;;23.00;15.23;;;12.50;99.90;;;;;;4126404;28;20378;-64
2022/04/16 07:25:57;;;;;;;21.58;15.02;;;12.50;99.90;;;;;;4127443;28;20054;-64
2022/04/16 07:27:57;;;;;;;27.88;15.93;;;12.60;99.90;;;;;;4127695;28;20473;-63
2022/04/16 07:29:59;;;;;;;19.58;14.05;;;12.70;99.90;;;;;;4129103;28;20034;-63
2022/04/16 07:31:59;;;;;;;24.23;15.30;;;12.90;99.90;;;;;;4126156;28;20030;-64
2022/04/16 07:34:00;;;;;;;24.02;15.75;;;12.60;99.90;;;;;;4128314;28;20415;-64
2022/04/16 07:36:01;;;;;;;23.15;16.27;;;12.60;99.90;;;;;;4126333;28;20034;-64
2022/04/16 07:38:02;;;;;;;22.85;14.52;;;12.60;99.90;;;;;;4127802;28;20019;-64
2022/04/16 07:40:03;;;;;;;21.90;15.27;;;12.80;99.90;;;;;;4127398;28;20544;-64
2022/04/16 07:42:04;;;;;;;24.42;14.68;;;12.80;99.90;;;;;;4127663;28;20371;-64
2022/04/16 07:44:05;;;;;;;23.55;15.38;;;13.00;99.90;;;;;;4130295;28;20031;-64
2022/04/16 07:46:06;;;;;;;17.80;12.88;;;12.70;99.90;;;;;;4126019;28;20031;-63
2022/04/16 07:48:06;;;;;;;21.98;14.98;;;12.90;99.90;;;;;;4127470;28;20037;-64
2022/04/16 07:50:08;;;;;;;18.58;12.90;;;13.00;99.90;;;;;;4127320;28;20166;-64
2022/04/16 07:52:08;;;;;;;23.23;14.90;;;13.20;99.90;;;;;;4132966;28;20037;-64
2022/04/16 07:54:09;;;;;;;20.10;14.27;;;13.10;99.90;;;;;;4131589;28;20382;-64
2022/04/16 07:56:10;;;;;;;21.40;13.70;;;13.10;99.90;;;;;;4127920;28;20067;-64
2022/04/16 07:58:10;;;;;;;18.85;12.50;;;13.20;99.90;;;;;;4128382;28;20018;-64
2022/04/16 08:00:11;;;;;;;24.75;14.32;;;13.40;99.90;;;;;;4126723;28;20553;-64
2022/04/16 08:02:13;;;;;;;21.13;13.80;;;13.50;99.90;;;;;;4127223;28;20512;-64
2022/04/16 08:04:13;;;;;;;20.73;13.07;;;13.50;99.90;;;;;;4129320;28;20030;-64
2022/04/16 08:06:14;;;;;;;22.00;13.60;;;13.60;99.90;;;;;;4128019;28;20034;-64
2022/04/16 08:08:14;;;;;;;19.60;13.52;;;13.60;99.90;;;;;;4130081;28;20081;-64
2022/04/16 08:10:15;;;;;;;20.58;13.70;;;13.40;99.90;;;;;;4123665;28;20035;-64
2022/04/16 08:12:17;;;;;;;17.73;12.25;;;13.50;99.90;;;;;;4126899;28;20038;-64
2022/04/16 08:14:20;;;;;;;20.98;12.98;;;13.60;99.90;;;;;;4128958;28;20088;-64
2022/04/16 08:16:21;;;;;;;20.38;12.80;;;13.70;99.90;;;;;;4125068;28;20117;-64
2022/04/16 08:18:21;;;;;;;20.40;13.25;;;13.70;99.90;;;;;;4126649;28;20501;-64
2022/04/16 08:20:22;;;;;;;22.17;14.10;;;13.70;99.90;;;;;;4124697;28;20064;-63
2022/04/16 08:22:23;;;;;;;16.55;11.45;;;13.60;99.90;;;;;;4126026;28;20074;-64
2022/04/16 08:26:31;;;;;;;16.33;11.13;;;13.80;99.90;;;;;;4126864;28;20038;-64
2022/04/16 08:28:32;;;;;;;14.18;10.32;;;13.90;99.90;;;;;;4126396;28;20041;-64
2022/04/16 08:30:32;;;;;;;21.30;11.95;;;14.10;99.90;;;;;;4127359;28;20034;-63
2022/04/16 08:32:43;;;;;;;14.48;10.63;;;14.00;99.90;;;;;;4125884;28;20065;-63
2022/04/16 08:34:43;;;;;;;16.88;11.65;;;14.10;99.90;;;;;;4127338;28;20438;-64
2022/04/16 08:36:44;;;;;;;14.77;10.75;;;14.00;99.90;;;;;;4128943;28;20113;-64
2022/04/16 08:38:44;;;;;;;16.98;11.43;;;14.10;99.90;;;;;;4126326;28;20034;-64
2022/04/16 08:40:47;;;;;;;14.80;9.55;;;13.90;99.90;;;;;;4125375;28;20033;-64
2022/04/16 08:42:52;;;;;;;14.20;9.65;;;13.90;99.90;;;;;;4124896;28;20035;-64
2022/04/16 08:44:53;;;;;;;15.23;10.00;;;14.10;99.90;;;;;;4125781;28;20039;-63
2022/04/16 08:46:56;;;;;;;15.88;10.40;;;14.10;99.90;;;;;;4128268;28;20383;-63
2022/04/16 08:48:58;;;;;;;14.05;10.23;;;14.00;99.90;;;;;;4127473;28;20034;-64
2022/04/16 08:51:00;;;;;;;12.63;8.80;;;13.90;99.90;;;;;;4126007;28;20031;-64
2022/04/16 08:53:01;;;;;;;16.00;8.85;;;13.80;99.90;;;;;;4126426;28;20121;-63
2022/04/16 08:55:04;;;;;;;11.48;8.57;;;13.80;99.90;;;;;;4127588;28;20030;-64
2022/04/16 08:57:05;;;;;;;53.00;14.68;;;13.70;99.90;;;;;;4125815;28;20076;-64
2022/04/16 08:59:06;;;;;;;13.10;8.63;;;13.90;99.90;;;;;;4126549;28;20406;-64
2022/04/16 09:01:07;;;;;;;25.08;10.52;;;14.10;99.90;;;;;;4123149;28;20047;-64
2022/04/16 09:03:09;;;;;;;14.40;8.45;;;14.20;99.90;;;;;;4120998;28;20060;-64
2022/04/16 09:05:10;;;;;;;12.93;8.35;;;14.30;99.90;;;;;;4124729;28;20452;-64
2022/04/16 09:07:11;;;;;;;9.95;6.47;;;14.00;99.90;;;;;;4127163;28;20418;-64
2022/04/16 09:09:12;;;;;;;12.30;7.35;;;14.30;99.90;;;;;;4128460;28;20117;-64
2022/04/16 09:11:13;;;;;;;13.77;7.70;;;14.40;99.90;;;;;;4125940;28;20133;-64
2022/04/16 09:13:16;;;;;;;12.93;7.90;;;14.40;99.90;;;;;;4126271;28;20050;-64
2022/04/16 09:15:17;;;;;;;12.45;7.65;;;14.40;99.90;;;;;;4126808;28;20124;-64
2022/04/16 09:17:19;;;;;;;11.20;7.80;;;14.50;99.70;;;;;;4126893;28;20481;-64
2022/04/16 09:19:21;;;;;;;11.75;7.35;;;14.60;99.90;;;;;;4126959;28;20053;-64
2022/04/16 09:21:26;;;;;;;12.45;7.82;;;14.70;99.90;;;;;;4126672;28;20097;-64
2022/04/16 09:23:27;;;;;;;16.38;8.73;;;14.70;99.90;;;;;;4127375;28;20058;-64
2022/04/16 09:25:30;;;;;;;15.18;8.35;;;14.60;99.40;;;;;;4126336;28;20051;-64
2022/04/16 09:27:52;;;;;;;12.38;8.75;;;14.50;99.90;;;;;;4127584;28;20413;-64
2022/04/16 09:29:54;;;;;;;13.15;8.40;;;14.70;99.90;;;;;;4127403;28;20035;-64
2022/04/16 09:31:54;;;;;;;11.13;7.35;;;14.90;99.90;;;;;;4123043;28;20031;-64
2022/04/16 09:33:55;;;;;;;7.50;5.00;;;14.80;98.50;;;;;;4123674;28;20539;-64
2022/04/16 09:35:56;;;;;;;7.90;5.72;;;14.90;96.90;;;;;;4127601;28;20026;-64
2022/04/16 09:37:58;;;;;;;11.77;7.25;;;15.00;97.30;;;;;;4126080;28;20051;-63
2022/04/16 09:40:10;;;;;;;13.07;8.13;;;14.80;97.30;;;;;;4126468;28;20096;-64
2022/04/16 09:42:10;;;;;;;13.10;7.38;;;14.80;98.50;;;;;;4132047;28;20034;-63
2022/04/16 09:44:17;;;;;;;13.82;8.68;;;15.00;99.30;;;;;;4123020;28;20129;-64
2022/04/16 09:46:20;;;;;;;11.68;7.78;;;14.80;97.90;;;;;;4124522;28;20061;-63
2022/04/16 09:48:21;;;;;;;13.75;7.35;;;14.80;97.80;;;;;;4125443;28;20592;-63
2022/04/16 09:50:24;;;;;;;9.05;4.90;;;14.60;96.90;;;;;;4125910;28;20034;-64
2022/04/16 09:52:25;;;;;;;7.25;5.30;;;14.60;96.20;;;;;;4125938;28;20038;-64
2022/04/16 09:54:27;;;;;;;10.15;6.78;;;14.80;97.50;;;;;;4126940;28;20038;-64
2022/04/16 09:56:28;;;;;;;10.27;6.63;;;14.70;97.90;;;;;;4127189;28;20074;-64
2022/04/16 09:58:37;;;;;;;7.80;5.75;;;14.70;96.50;;;;;;4126407;28;20035;-64
2022/04/16 10:00:38;;;;;;;9.93;6.07;;;14.80;95.30;;;;;;4123398;28;20034;-64
2022/04/16 10:02:41;;;;;;;9.20;5.97;;;14.80;95.00;;;;;;4128398;28;20050;-64
2022/04/16 10:04:42;;;;;;;11.45;6.28;;;14.90;95.30;;;;;;4124286;28;20050;-64
2022/04/16 10:06:44;;;;;;;11.90;6.47;;;14.80;95.10;;;;;;4126584;28;20045;-64
2022/04/16 10:08:46;;;;;;;14.00;6.63;;;14.80;96.10;;;;;;4124320;28;20117;-64
2022/04/16 10:10:54;;;;;;;9.32;6.43;;;14.80;96.20;;;;;;4125131;28;20042;-64
2022/04/16 10:13:00;;;;;;;10.60;7.20;;;14.60;95.20;;;;;;4123511;28;20062;-64
2022/04/16 10:15:16;;;;;;;9.45;6.20;;;14.80;95.70;;;;;;4125730;28;20127;-65
2022/04/16 10:17:20;;;;;;;8.73;5.80;;;14.90;95.20;;;;;;4125453;28;20034;-64
2022/04/16 10:19:20;;;;;;;9.13;6.10;;;15.00;94.60;;;;;;4127555;28;20031;-64
2022/04/16 10:21:21;;;;;;;8.73;5.43;;;14.80;94.10;;;;;;4123376;28;20504;-66
2022/04/16 10:23:37;;;;;;;6.80;5.00;;;14.90;94.00;;;;;;4126485;28;20038;-65
2022/04/16 10:25:41;;;;;;;9.32;5.03;;;15.10;94.50;;;;;;4124499;28;20030;-64
2022/04/16 10:27:42;;;;;;;7.82;5.18;;;15.10;92.80;;;;;;4124956;28;20042;-64
2022/04/16 10:29:46;;;;;;;13.48;6.68;;;15.10;93.30;;;;;;4125419;28;20494;-64
2022/04/16 10:31:50;;;;;;;13.82;6.80;;;15.30;95.80;;;;;;4125189;28;20034;-64
2022/04/16 10:34:11;;;;;;;10.52;6.57;;;15.10;94.10;;;;;;4125228;28;20490;-67
2022/04/16 10:36:11;;;;;;;10.43;6.78;;;15.20;94.00;;;;;;4126952;28;20062;-64
2022/04/16 10:38:43;;;;;;;8.65;6.03;;;15.10;93.20;;;;;;4124837;28;20037;-64